createdAt,value
2019-04-21T00:01:08.347Z,62.00
2019-04-21T00:06:31.585Z,62.90
2019-04-21T00:11:36.483Z,60.30
2019-04-21T00:16:32.149Z,60.70
2019-04-21T00:21:36.502Z,60.20
2019-04-21T00:26:55.798Z,59.40
2019-04-21T00:31:56.621Z,59.30
2019-04-21T00:36:56.046Z,59.40
2019-04-21T00:42:12.916Z,60.20
2019-04-21T00:47:18.015Z,60.90
2019-04-21T01:07:55.413Z,65.90
2019-04-21T01:13:02.701Z,65.00
2019-04-21T01:18:04.845Z,64.90
2019-04-21T01:22:53.626Z,64.50
2019-04-21T01:28:13.524Z,68.00
2019-04-21T01:33:26.046Z,69.00
2019-04-21T01:38:35.708Z,67.10
2019-04-21T01:43:33.927Z,69.60
2019-04-21T01:48:40.317Z,66.70
2019-04-21T01:53:59.560Z,67.10
2019-04-21T01:58:51.463Z,67.10
2019-04-21T02:04:06.890Z,68.20
2019-04-21T02:09:09.805Z,68.00
2019-04-21T02:14:26.314Z,69.80
2019-04-21T02:19:26.177Z,70.40
2019-04-21T02:29:41.566Z,69.50
2019-04-21T02:35:07.909Z,75.80
2019-04-21T02:40:03.937Z,71.40
2019-04-21T02:45:09.481Z,70.00
2019-04-21T02:50:25.925Z,80.10
2019-04-21T02:55:15.585Z,74.00
2019-04-21T03:05:48.750Z,72.80
2019-04-21T03:16:04.969Z,76.50
2019-04-21T03:21:16.525Z,74.80
2019-04-21T03:26:22.815Z,73.30
2019-04-21T03:36:39.875Z,75.40
2019-04-21T03:41:50.576Z,73.40
2019-04-21T03:47:01.742Z,73.20
2019-04-21T03:52:03.783Z,82.40
2019-04-21T04:02:18.249Z,77.50
2019-04-21T04:12:48.362Z,74.10
2019-04-21T04:17:49.931Z,75.70
2019-04-21T04:23:02.954Z,75.60
2019-04-21T04:33:08.045Z,78.70
2019-04-21T04:38:26.651Z,83.70
2019-04-21T04:43:30.703Z,80.70
2019-04-21T04:48:43.406Z,76.70
2019-04-21T04:59:10.600Z,74.40
2019-04-21T05:09:03.374Z,80.00
2019-04-21T05:14:02.979Z,79.10
2019-04-21T05:24:01.333Z,76.10
2019-04-21T05:29:00.674Z,73.50
2019-04-21T05:34:22.029Z,70.30
2019-04-21T05:39:48.999Z,68.70
2019-04-21T05:45:01.695Z,66.30
2019-04-21T05:50:06.239Z,61.50
2019-04-21T05:55:19.971Z,58.80
2019-04-21T06:00:23.064Z,58.50
2019-04-21T06:05:36.780Z,55.80
2019-04-21T06:10:45.849Z,51.90
2019-04-21T06:15:45.512Z,51.00
2019-04-21T06:20:46.791Z,47.70
2019-04-21T06:26:08.269Z,46.40
2019-04-21T06:36:39.600Z,45.90
2019-04-21T06:41:34.346Z,45.20
2019-04-21T06:46:48.950Z,43.50
2019-04-21T06:51:45.457Z,42.60
2019-04-21T06:56:56.594Z,42.50
2019-04-21T07:02:13.407Z,42.70
2019-04-21T07:07:05.166Z,41.10
2019-04-21T07:12:06.102Z,40.40
2019-04-21T07:17:26.949Z,39.70
2019-04-21T07:22:24.958Z,38.10
2019-04-21T07:32:38.133Z,37.00
2019-04-21T07:37:41.573Z,35.50
2019-04-21T07:42:42.890Z,34.70
2019-04-21T07:47:55.176Z,35.20
2019-04-21T07:53:16.459Z,33.50
2019-04-21T07:58:17.764Z,33.50
2019-04-21T08:03:24.757Z,32.30
2019-04-21T08:08:26.377Z,31.30
2019-04-21T08:18:44.225Z,31.90
2019-04-21T08:23:41.466Z,30.70
2019-04-21T08:28:55.407Z,29.80
2019-04-21T08:34:01.999Z,30.10
2019-04-21T08:39:03.229Z,29.80
2019-04-21T08:44:18.503Z,30.00
2019-04-21T08:49:13.396Z,30.20
2019-04-21T08:54:22.022Z,31.60
2019-04-21T08:59:54.846Z,30.40
2019-04-21T09:04:55.557Z,30.90
2019-04-21T09:09:59.333Z,29.50
2019-04-21T09:15:04.678Z,29.40
2019-04-21T09:20:17.277Z,28.10
2019-04-21T09:25:21.191Z,27.70
2019-04-21T09:30:06.484Z,27.70
2019-04-21T09:35:12.450Z,27.40
2019-04-21T09:40:16.856Z,28.20
2019-04-21T09:45:22.941Z,26.10
2019-04-21T09:50:27.863Z,27.10
2019-04-21T09:55:41.754Z,25.00
2019-04-21T10:00:46.180Z,26.00
2019-04-21T10:05:43.136Z,26.20
2019-04-21T10:10:48.976Z,25.90
2019-04-21T10:16:10.884Z,26.80
2019-04-21T10:21:15.437Z,27.40
2019-04-21T10:26:19.758Z,28.10
2019-04-21T10:31:24.940Z,25.10
2019-04-21T10:36:30.951Z,25.00
2019-04-21T10:41:35.225Z,28.00
2019-04-21T10:46:40.497Z,26.80
2019-04-21T10:51:44.800Z,28.10
2019-04-21T10:56:49.520Z,26.60
2019-04-21T11:01:55.169Z,27.70
2019-04-21T11:07:06.986Z,26.00
2019-04-21T11:12:06.261Z,24.80
2019-04-21T11:17:10.587Z,27.80
2019-04-21T11:22:16.743Z,27.40
2019-04-21T11:27:22.539Z,27.50
2019-04-21T11:32:27.364Z,27.40
2019-04-21T11:37:34.610Z,27.80
2019-04-21T11:42:41.750Z,25.70
2019-04-21T11:48:06.263Z,27.40
2019-04-21T11:53:10.715Z,29.10
2019-04-21T11:58:15.993Z,29.20
2019-04-21T12:03:20.778Z,30.40
2019-04-21T12:08:34.385Z,29.40
2019-04-21T12:13:32.565Z,28.30
2019-04-21T12:18:37.010Z,28.00
2019-04-21T12:23:40.584Z,29.20
2019-04-21T12:28:45.878Z,29.20
2019-04-21T12:33:56.333Z,28.20
2019-04-21T12:39:03.306Z,29.90
2019-04-21T12:44:08.986Z,31.10
2019-04-21T12:49:22.886Z,30.40
2019-04-21T12:54:27.915Z,29.90
2019-04-21T12:59:35.900Z,29.50
2019-04-21T13:04:42.242Z,28.00
2019-04-21T13:09:48.466Z,27.40
2019-04-21T13:15:39.676Z,29.70
2019-04-21T13:20:44.639Z,30.90
2019-04-21T13:25:54.131Z,29.30
2019-04-21T13:31:26.510Z,30.40
2019-04-21T13:36:33.822Z,31.50
2019-04-21T13:41:50.584Z,29.50
2019-04-21T13:46:49.345Z,30.90
2019-04-21T13:51:54.180Z,32.30
2019-04-21T13:57:00.550Z,30.50
2019-04-21T14:02:06.895Z,30.60
2019-04-21T14:07:12.230Z,31.00
2019-04-21T14:12:38.292Z,29.80
2019-04-21T14:17:43.147Z,31.00
2019-04-21T14:22:49.610Z,30.40
2019-04-21T14:27:55.689Z,31.10
2019-04-21T14:33:00.285Z,29.60
2019-04-21T14:38:04.859Z,30.50
2019-04-21T14:43:08.157Z,29.70
2019-04-21T14:48:30.546Z,28.20
2019-04-21T14:53:49.782Z,29.90
2019-04-21T14:58:57.308Z,29.20
2019-04-21T15:04:01.620Z,31.40
2019-04-21T15:09:09.130Z,30.90
2019-04-21T15:14:15.798Z,31.90
2019-04-21T15:19:20.462Z,31.20
2019-04-21T15:24:24.351Z,32.10
2019-04-21T15:29:28.934Z,30.20
2019-04-21T15:34:34.018Z,31.10
2019-04-21T15:39:38.475Z,31.00
2019-04-21T15:44:42.845Z,32.70
2019-04-21T15:50:04.733Z,31.90
2019-04-21T15:55:14.682Z,32.90
2019-04-21T16:00:32.327Z,33.80
2019-04-21T16:05:44.568Z,31.90
2019-04-21T16:10:56.009Z,32.80
2019-04-21T16:15:59.319Z,31.90
2019-04-21T16:21:06.003Z,31.80
2019-04-21T16:26:15.201Z,32.90
2019-04-21T16:31:20.402Z,33.00
2019-04-21T16:36:29.569Z,33.50
2019-04-21T16:41:36.133Z,33.40
2019-04-21T16:46:43.276Z,34.30
2019-04-21T16:51:52.307Z,33.70
2019-04-21T16:57:28.025Z,33.00
2019-04-21T17:02:36.716Z,33.90
2019-04-21T17:07:45.119Z,34.50
2019-04-21T17:12:51.292Z,35.20
2019-04-21T17:18:16.239Z,34.80
2019-04-21T17:23:04.085Z,36.70
2019-04-21T17:28:08.147Z,35.60
2019-04-21T17:33:16.197Z,35.60
2019-04-21T17:38:21.782Z,35.60
2019-04-21T17:43:26.043Z,36.30
2019-04-21T17:48:31.298Z,37.70
2019-04-21T17:53:53.799Z,38.10
2019-04-21T17:59:24.241Z,38.50
2019-04-21T18:04:28.516Z,39.20
2019-04-21T18:09:37.484Z,40.50
2019-04-21T18:14:20.718Z,40.10
2019-04-21T18:19:28.709Z,40.40
2019-04-21T18:24:40.930Z,40.90
2019-04-21T18:29:42.361Z,41.70
2019-04-21T18:35:29.292Z,42.80
2019-04-21T18:40:36.876Z,43.50
2019-04-21T18:46:13.682Z,45.70
2019-04-21T18:51:45.156Z,45.70
2019-04-21T18:56:31.495Z,47.40
2019-04-21T19:01:38.383Z,47.00
2019-04-21T19:07:00.821Z,49.30
2019-04-21T19:12:07.666Z,50.50
2019-04-21T19:22:20.499Z,52.30
2019-04-21T19:27:50.250Z,52.80
2019-04-21T19:32:59.484Z,53.30
2019-04-21T19:37:55.194Z,53.50
2019-04-21T19:43:02.898Z,53.90
2019-04-21T19:48:13.659Z,54.30
2019-04-21T19:53:20.120Z,56.30
2019-04-21T19:58:10.751Z,55.90
2019-04-21T20:03:16.500Z,56.60
2019-04-21T20:08:36.271Z,56.90
2019-04-21T20:14:27.564Z,57.30
2019-04-21T20:18:40.471Z,56.90
2019-04-21T20:23:41.471Z,56.10
2019-04-21T20:28:58.812Z,56.10
2019-04-21T20:34:11.187Z,54.90
2019-04-21T20:39:06.020Z,55.10
2019-04-21T20:44:18.437Z,55.00
2019-04-21T20:49:23.081Z,54.60
2019-04-21T20:54:30.107Z,55.00
2019-04-21T20:59:32.701Z,55.30
2019-04-21T21:04:37.699Z,54.50
2019-04-21T21:09:57.462Z,55.50
2019-04-21T21:14:50.259Z,56.40
2019-04-21T21:20:07.746Z,56.50
2019-04-21T21:25:18.893Z,58.10
2019-04-21T21:30:14.594Z,57.90
2019-04-21T21:35:19.237Z,58.40
2019-04-21T21:40:34.927Z,58.70
2019-04-21T21:45:22.242Z,59.10
2019-04-21T21:50:39.879Z,58.80
2019-04-21T21:55:32.802Z,60.50
2019-04-21T22:00:43.137Z,62.60
2019-04-21T22:05:50.398Z,61.60
2019-04-21T22:10:50.357Z,63.50
2019-04-21T22:16:00.289Z,59.60
2019-04-21T22:21:12.795Z,59.90
2019-04-21T22:26:07.366Z,61.90
2019-04-21T22:31:15.261Z,62.50
2019-04-21T22:36:31.268Z,60.00
2019-04-21T22:41:30.972Z,60.90
2019-04-21T22:46:30.635Z,63.80
2019-04-21T22:51:38.938Z,61.10
2019-04-21T22:56:52.845Z,62.10
2019-04-21T23:01:50.436Z,64.10
2019-04-21T23:06:56.579Z,62.10
2019-04-21T23:12:01.306Z,63.70
2019-04-21T23:17:29.157Z,65.10
2019-04-21T23:22:29.511Z,65.40
2019-04-21T23:27:33.727Z,68.60
2019-04-21T23:32:36.321Z,66.50
2019-04-21T23:37:34.115Z,64.70
2019-04-21T23:42:40.071Z,66.10
2019-04-21T23:47:53.611Z,65.50
2019-04-21T23:52:48.068Z,66.40
2019-04-21T23:58:04.994Z,68.10
